sensor_id;sensor_type;location;lat;lon;timestamp;P1;durP1;ratioP1;P2;durP2;ratioP2
33864;SDS011;20159;51.072;13.526;2023-02-11T00:00:55;45.15;;;30.42;;
33864;SDS011;20159;51.072;13.526;2023-02-11T00:03:20;43.25;;;30.92;;
33864;SDS011;20159;51.072;13.526;2023-02-11T00:05:55;42.20;;;30.15;;
33864;SDS011;20159;51.072;13.526;2023-02-11T00:08:24;40.83;;;30.63;;
33864;SDS011;20159;51.072;13.526;2023-02-11T00:10:51;38.17;;;29.52;;
33864;SDS011;20159;51.072;13.526;2023-02-11T00:13:22;40.15;;;28.85;;
33864;SDS011;20159;51.072;13.526;2023-02-11T00:15:48;38.67;;;29.73;;
33864;SDS011;20159;51.072;13.526;2023-02-11T00:18:13;39.85;;;29.42;;
33864;SDS011;20159;51.072;13.526;2023-02-11T00:20:39;40.63;;;28.40;;
33864;SDS011;20159;51.072;13.526;2023-02-11T00:23:06;40.33;;;29.98;;
33864;SDS011;20159;51.072;13.526;2023-02-11T00:25:32;39.80;;;29.75;;
33864;SDS011;20159;51.072;13.526;2023-02-11T00:27:57;37.40;;;29.20;;
33864;SDS011;20159;51.072;13.526;2023-02-11T00:30:23;38.97;;;30.83;;
33864;SDS011;20159;51.072;13.526;2023-02-11T00:32:48;38.15;;;29.83;;
33864;SDS011;20159;51.072;13.526;2023-02-11T00:35:14;37.25;;;28.10;;
33864;SDS011;20159;51.072;13.526;2023-02-11T00:37:39;41.47;;;30.25;;
33864;SDS011;20159;51.072;13.526;2023-02-11T00:40:05;38.92;;;30.83;;
33864;SDS011;20159;51.072;13.526;2023-02-11T00:42:31;39.55;;;30.00;;
33864;SDS011;20159;51.072;13.526;2023-02-11T00:44:59;37.85;;;30.15;;
33864;SDS011;20159;51.072;13.526;2023-02-11T00:47:25;38.95;;;29.92;;
33864;SDS011;20159;51.072;13.526;2023-02-11T00:49:50;40.10;;;29.95;;
33864;SDS011;20159;51.072;13.526;2023-02-11T00:52:16;38.28;;;30.45;;
33864;SDS011;20159;51.072;13.526;2023-02-11T00:54:41;38.20;;;29.35;;
33864;SDS011;20159;51.072;13.526;2023-02-11T00:57:07;39.58;;;29.10;;
33864;SDS011;20159;51.072;13.526;2023-02-11T00:59:32;35.33;;;28.35;;
33864;SDS011;20159;51.072;13.526;2023-02-11T01:01:58;40.72;;;30.85;;
33864;SDS011;20159;51.072;13.526;2023-02-11T01:04:23;37.63;;;29.38;;
33864;SDS011;20159;51.072;13.526;2023-02-11T01:06:49;38.97;;;30.15;;
33864;SDS011;20159;51.072;13.526;2023-02-11T01:09:14;37.50;;;30.05;;
33864;SDS011;20159;51.072;13.526;2023-02-11T01:11:40;41.40;;;31.23;;
33864;SDS011;20159;51.072;13.526;2023-02-11T01:14:06;36.65;;;29.33;;
33864;SDS011;20159;51.072;13.526;2023-02-11T01:16:31;40.42;;;29.98;;
33864;SDS011;20159;51.072;13.526;2023-02-11T01:18:57;36.95;;;29.10;;
33864;SDS011;20159;51.072;13.526;2023-02-11T01:21:22;40.13;;;30.85;;
33864;SDS011;20159;51.072;13.526;2023-02-11T01:23:48;40.75;;;29.75;;
33864;SDS011;20159;51.072;13.526;2023-02-11T01:26:14;42.28;;;29.50;;
33864;SDS011;20159;51.072;13.526;2023-02-11T01:28:39;38.67;;;29.65;;
33864;SDS011;20159;51.072;13.526;2023-02-11T01:31:05;37.65;;;29.38;;
33864;SDS011;20159;51.072;13.526;2023-02-11T01:33:31;37.90;;;30.13;;
33864;SDS011;20159;51.072;13.526;2023-02-11T01:36:00;37.92;;;30.30;;
33864;SDS011;20159;51.072;13.526;2023-02-11T01:38:30;39.80;;;30.48;;
33864;SDS011;20159;51.072;13.526;2023-02-11T01:40:57;37.97;;;30.05;;
33864;SDS011;20159;51.072;13.526;2023-02-11T01:43:30;36.72;;;29.55;;
33864;SDS011;20159;51.072;13.526;2023-02-11T01:45:59;38.15;;;27.35;;
33864;SDS011;20159;51.072;13.526;2023-02-11T01:48:29;36.33;;;29.10;;
33864;SDS011;20159;51.072;13.526;2023-02-11T01:51:02;37.00;;;27.85;;
33864;SDS011;20159;51.072;13.526;2023-02-11T01:53:49;35.25;;;28.15;;
33864;SDS011;20159;51.072;13.526;2023-02-11T01:56:36;35.17;;;28.50;;
33864;SDS011;20159;51.072;13.526;2023-02-11T01:59:29;36.97;;;29.50;;
33864;SDS011;20159;51.072;13.526;2023-02-11T02:02:06;39.88;;;29.27;;
33864;SDS011;20159;51.072;13.526;2023-02-11T02:04:38;37.90;;;30.00;;
33864;SDS011;20159;51.072;13.526;2023-02-11T02:07:11;39.03;;;29.27;;
33864;SDS011;20159;51.072;13.526;2023-02-11T02:09:45;37.10;;;28.40;;
33864;SDS011;20159;51.072;13.526;2023-02-11T02:12:16;34.53;;;28.33;;
33864;SDS011;20159;51.072;13.526;2023-02-11T02:14:41;37.38;;;29.23;;
33864;SDS011;20159;51.072;13.526;2023-02-11T02:17:13;36.10;;;27.95;;
33864;SDS011;20159;51.072;13.526;2023-02-11T02:22:44;35.35;;;28.13;;
33864;SDS011;20159;51.072;13.526;2023-02-11T02:33:44;36.90;;;27.95;;
33864;SDS011;20159;51.072;13.526;2023-02-11T02:36:28;33.78;;;27.25;;
33864;SDS011;20159;51.072;13.526;2023-02-11T02:39:17;35.17;;;28.20;;
33864;SDS011;20159;51.072;13.526;2023-02-11T02:44:13;32.87;;;25.93;;
33864;SDS011;20159;51.072;13.526;2023-02-11T02:46:39;35.78;;;25.77;;
33864;SDS011;20159;51.072;13.526;2023-02-11T02:49:14;36.80;;;27.45;;
33864;SDS011;20159;51.072;13.526;2023-02-11T03:00:04;32.58;;;25.42;;
33864;SDS011;20159;51.072;13.526;2023-02-11T03:05:45;36.17;;;26.27;;
33864;SDS011;20159;51.072;13.526;2023-02-11T03:10:54;30.92;;;26.17;;
33864;SDS011;20159;51.072;13.526;2023-02-11T03:13:22;35.50;;;28.88;;
33864;SDS011;20159;51.072;13.526;2023-02-11T03:15:52;33.92;;;27.52;;
33864;SDS011;20159;51.072;13.526;2023-02-11T03:18:21;33.22;;;26.45;;
33864;SDS011;20159;51.072;13.526;2023-02-11T03:20:50;32.47;;;25.58;;
33864;SDS011;20159;51.072;13.526;2023-02-11T03:25:49;33.35;;;27.70;;
33864;SDS011;20159;51.072;13.526;2023-02-11T03:30:52;34.63;;;26.95;;
33864;SDS011;20159;51.072;13.526;2023-02-11T03:33:28;35.97;;;27.90;;
33864;SDS011;20159;51.072;13.526;2023-02-11T03:38:29;32.30;;;25.73;;
33864;SDS011;20159;51.072;13.526;2023-02-11T03:41:02;34.90;;;27.63;;
33864;SDS011;20159;51.072;13.526;2023-02-11T03:43:32;35.40;;;27.85;;
33864;SDS011;20159;51.072;13.526;2023-02-11T03:46:01;33.97;;;27.55;;
33864;SDS011;20159;51.072;13.526;2023-02-11T03:48:32;37.88;;;28.75;;
33864;SDS011;20159;51.072;13.526;2023-02-11T03:51:01;34.88;;;28.02;;
33864;SDS011;20159;51.072;13.526;2023-02-11T03:53:29;34.88;;;26.88;;
33864;SDS011;20159;51.072;13.526;2023-02-11T03:55:55;34.88;;;28.48;;
33864;SDS011;20159;51.072;13.526;2023-02-11T03:58:24;33.47;;;26.77;;
33864;SDS011;20159;51.072;13.526;2023-02-11T04:00:49;33.28;;;27.38;;
33864;SDS011;20159;51.072;13.526;2023-02-11T04:03:15;34.50;;;28.17;;
33864;SDS011;20159;51.072;13.526;2023-02-11T04:05:41;35.08;;;27.58;;
33864;SDS011;20159;51.072;13.526;2023-02-11T04:08:06;34.53;;;27.33;;
33864;SDS011;20159;51.072;13.526;2023-02-11T04:10:32;35.20;;;27.85;;
33864;SDS011;20159;51.072;13.526;2023-02-11T04:12:58;38.15;;;28.88;;
33864;SDS011;20159;51.072;13.526;2023-02-11T04:15:23;35.10;;;27.02;;
33864;SDS011;20159;51.072;13.526;2023-02-11T04:17:49;34.05;;;27.83;;
33864;SDS011;20159;51.072;13.526;2023-02-11T04:20:15;35.25;;;28.17;;
33864;SDS011;20159;51.072;13.526;2023-02-11T04:22:40;34.97;;;28.08;;
33864;SDS011;20159;51.072;13.526;2023-02-11T04:25:06;36.22;;;28.40;;
33864;SDS011;20159;51.072;13.526;2023-02-11T04:27:33;36.30;;;28.02;;
33864;SDS011;20159;51.072;13.526;2023-02-11T04:29:58;35.22;;;28.05;;
33864;SDS011;20159;51.072;13.526;2023-02-11T04:32:25;38.97;;;28.67;;
33864;SDS011;20159;51.072;13.526;2023-02-11T04:34:51;34.85;;;28.42;;
33864;SDS011;20159;51.072;13.526;2023-02-11T04:37:16;35.85;;;27.65;;
33864;SDS011;20159;51.072;13.526;2023-02-11T04:39:42;36.38;;;27.67;;
33864;SDS011;20159;51.072;13.526;2023-02-11T04:42:07;35.17;;;28.08;;
33864;SDS011;20159;51.072;13.526;2023-02-11T04:44:33;35.58;;;27.25;;
33864;SDS011;20159;51.072;13.526;2023-02-11T04:46:58;34.50;;;27.60;;
33864;SDS011;20159;51.072;13.526;2023-02-11T04:49:24;35.28;;;26.75;;
33864;SDS011;20159;51.072;13.526;2023-02-11T04:51:50;31.05;;;26.48;;
33864;SDS011;20159;51.072;13.526;2023-02-11T04:54:15;34.95;;;27.73;;
33864;SDS011;20159;51.072;13.526;2023-02-11T04:56:41;37.58;;;28.98;;
33864;SDS011;20159;51.072;13.526;2023-02-11T04:59:07;36.83;;;28.15;;
33864;SDS011;20159;51.072;13.526;2023-02-11T05:01:32;36.58;;;27.73;;
33864;SDS011;20159;51.072;13.526;2023-02-11T05:03:58;36.85;;;28.27;;
33864;SDS011;20159;51.072;13.526;2023-02-11T05:06:24;35.88;;;28.40;;
33864;SDS011;20159;51.072;13.526;2023-02-11T05:08:49;37.35;;;28.65;;
33864;SDS011;20159;51.072;13.526;2023-02-11T05:11:16;35.08;;;26.75;;
33864;SDS011;20159;51.072;13.526;2023-02-11T05:13:44;34.53;;;27.35;;
33864;SDS011;20159;51.072;13.526;2023-02-11T05:16:10;34.92;;;28.17;;
33864;SDS011;20159;51.072;13.526;2023-02-11T05:18:36;38.08;;;28.60;;
33864;SDS011;20159;51.072;13.526;2023-02-11T05:21:06;33.90;;;27.70;;
33864;SDS011;20159;51.072;13.526;2023-02-11T05:23:33;36.63;;;27.35;;
33864;SDS011;20159;51.072;13.526;2023-02-11T05:25:58;37.53;;;28.35;;
33864;SDS011;20159;51.072;13.526;2023-02-11T05:28:24;35.72;;;28.05;;
33864;SDS011;20159;51.072;13.526;2023-02-11T05:30:49;35.00;;;27.98;;
33864;SDS011;20159;51.072;13.526;2023-02-11T05:33:15;35.75;;;28.00;;
33864;SDS011;20159;51.072;13.526;2023-02-11T05:35:41;37.03;;;28.58;;
33864;SDS011;20159;51.072;13.526;2023-02-11T05:38:07;36.83;;;28.85;;
33864;SDS011;20159;51.072;13.526;2023-02-11T05:40:32;36.75;;;28.50;;
33864;SDS011;20159;51.072;13.526;2023-02-11T05:42:58;37.25;;;29.52;;
33864;SDS011;20159;51.072;13.526;2023-02-11T05:45:23;35.63;;;28.45;;
33864;SDS011;20159;51.072;13.526;2023-02-11T05:47:49;35.85;;;28.23;;
33864;SDS011;20159;51.072;13.526;2023-02-11T05:50:14;39.38;;;30.08;;
33864;SDS011;20159;51.072;13.526;2023-02-11T05:52:40;34.85;;;27.67;;
33864;SDS011;20159;51.072;13.526;2023-02-11T05:55:05;37.28;;;29.05;;
33864;SDS011;20159;51.072;13.526;2023-02-11T05:57:31;37.78;;;29.35;;
33864;SDS011;20159;51.072;13.526;2023-02-11T05:59:56;37.15;;;29.52;;
33864;SDS011;20159;51.072;13.526;2023-02-11T06:02:22;35.97;;;29.00;;
33864;SDS011;20159;51.072;13.526;2023-02-11T06:04:47;39.50;;;29.90;;
33864;SDS011;20159;51.072;13.526;2023-02-11T06:07:13;44.35;;;30.42;;
33864;SDS011;20159;51.072;13.526;2023-02-11T06:09:38;38.05;;;29.38;;
33864;SDS011;20159;51.072;13.526;2023-02-11T06:12:04;36.47;;;29.95;;
33864;SDS011;20159;51.072;13.526;2023-02-11T06:14:31;38.15;;;29.65;;
33864;SDS011;20159;51.072;13.526;2023-02-11T06:16:57;39.45;;;29.65;;
33864;SDS011;20159;51.072;13.526;2023-02-11T06:19:23;39.40;;;30.27;;
33864;SDS011;20159;51.072;13.526;2023-02-11T06:21:48;36.50;;;28.02;;
33864;SDS011;20159;51.072;13.526;2023-02-11T06:24:14;37.22;;;28.25;;
33864;SDS011;20159;51.072;13.526;2023-02-11T06:26:39;35.33;;;28.08;;
33864;SDS011;20159;51.072;13.526;2023-02-11T06:29:05;39.22;;;29.30;;
33864;SDS011;20159;51.072;13.526;2023-02-11T06:31:30;36.97;;;29.55;;
33864;SDS011;20159;51.072;13.526;2023-02-11T06:33:56;38.40;;;29.63;;
33864;SDS011;20159;51.072;13.526;2023-02-11T06:36:22;36.42;;;29.23;;
33864;SDS011;20159;51.072;13.526;2023-02-11T06:38:48;37.78;;;29.80;;
33864;SDS011;20159;51.072;13.526;2023-02-11T06:41:14;37.17;;;29.02;;
33864;SDS011;20159;51.072;13.526;2023-02-11T06:43:43;37.42;;;29.73;;
33864;SDS011;20159;51.072;13.526;2023-02-11T06:46:09;37.83;;;30.45;;
33864;SDS011;20159;51.072;13.526;2023-02-11T06:48:35;38.78;;;30.42;;
33864;SDS011;20159;51.072;13.526;2023-02-11T06:51:05;37.47;;;29.98;;
33864;SDS011;20159;51.072;13.526;2023-02-11T06:53:34;42.08;;;30.40;;
33864;SDS011;20159;51.072;13.526;2023-02-11T06:56:05;36.33;;;28.13;;
33864;SDS011;20159;51.072;13.526;2023-02-11T06:58:33;39.42;;;29.20;;
33864;SDS011;20159;51.072;13.526;2023-02-11T07:01:04;38.40;;;29.40;;
33864;SDS011;20159;51.072;13.526;2023-02-11T07:03:32;38.97;;;29.85;;
33864;SDS011;20159;51.072;13.526;2023-02-11T07:06:00;38.25;;;28.60;;
33864;SDS011;20159;51.072;13.526;2023-02-11T07:08:25;38.40;;;29.73;;
33864;SDS011;20159;51.072;13.526;2023-02-11T07:10:51;41.10;;;30.38;;
33864;SDS011;20159;51.072;13.526;2023-02-11T07:13:16;40.95;;;31.50;;
33864;SDS011;20159;51.072;13.526;2023-02-11T07:15:42;40.65;;;30.83;;
33864;SDS011;20159;51.072;13.526;2023-02-11T07:18:07;39.58;;;30.63;;
33864;SDS011;20159;51.072;13.526;2023-02-11T07:20:33;37.53;;;30.15;;
33864;SDS011;20159;51.072;13.526;2023-02-11T07:22:58;39.00;;;29.65;;
33864;SDS011;20159;51.072;13.526;2023-02-11T07:25:24;42.17;;;31.25;;
33864;SDS011;20159;51.072;13.526;2023-02-11T07:27:49;41.28;;;32.03;;
33864;SDS011;20159;51.072;13.526;2023-02-11T07:30:15;41.55;;;30.52;;
33864;SDS011;20159;51.072;13.526;2023-02-11T07:32:40;41.00;;;31.73;;
33864;SDS011;20159;51.072;13.526;2023-02-11T07:35:06;40.72;;;31.25;;
33864;SDS011;20159;51.072;13.526;2023-02-11T07:37:32;42.42;;;32.10;;
33864;SDS011;20159;51.072;13.526;2023-02-11T07:39:58;40.53;;;30.80;;
33864;SDS011;20159;51.072;13.526;2023-02-11T07:42:24;43.47;;;30.95;;
33864;SDS011;20159;51.072;13.526;2023-02-11T07:44:49;45.22;;;31.55;;
33864;SDS011;20159;51.072;13.526;2023-02-11T07:47:15;41.20;;;30.90;;
33864;SDS011;20159;51.072;13.526;2023-02-11T07:49:40;40.50;;;30.67;;
33864;SDS011;20159;51.072;13.526;2023-02-11T07:52:06;42.50;;;31.35;;
33864;SDS011;20159;51.072;13.526;2023-02-11T07:54:31;41.40;;;30.92;;
33864;SDS011;20159;51.072;13.526;2023-02-11T07:56:57;40.92;;;30.92;;
33864;SDS011;20159;51.072;13.526;2023-02-11T07:59:22;38.47;;;29.40;;
33864;SDS011;20159;51.072;13.526;2023-02-11T08:01:48;39.45;;;30.33;;
33864;SDS011;20159;51.072;13.526;2023-02-11T08:04:15;39.28;;;30.17;;
33864;SDS011;20159;51.072;13.526;2023-02-11T08:06:41;38.22;;;29.65;;
33864;SDS011;20159;51.072;13.526;2023-02-11T08:09:07;39.95;;;28.90;;
33864;SDS011;20159;51.072;13.526;2023-02-11T08:11:35;39.28;;;29.40;;
33864;SDS011;20159;51.072;13.526;2023-02-11T08:14:01;36.85;;;28.88;;
33864;SDS011;20159;51.072;13.526;2023-02-11T08:16:27;35.25;;;27.48;;
33864;SDS011;20159;51.072;13.526;2023-02-11T08:18:56;39.08;;;29.67;;
33864;SDS011;20159;51.072;13.526;2023-02-11T08:21:22;38.40;;;29.67;;
33864;SDS011;20159;51.072;13.526;2023-02-11T08:23:48;35.63;;;27.25;;
33864;SDS011;20159;51.072;13.526;2023-02-11T08:26:18;39.40;;;29.02;;
33864;SDS011;20159;51.072;13.526;2023-02-11T08:28:46;33.83;;;27.27;;
33864;SDS011;20159;51.072;13.526;2023-02-11T08:31:14;36.45;;;28.48;;
33864;SDS011;20159;51.072;13.526;2023-02-11T08:33:41;36.33;;;28.48;;
33864;SDS011;20159;51.072;13.526;2023-02-11T08:36:16;37.80;;;29.42;;
33864;SDS011;20159;51.072;13.526;2023-02-11T08:38:44;38.85;;;29.27;;
33864;SDS011;20159;51.072;13.526;2023-02-11T08:41:10;39.03;;;29.55;;
33864;SDS011;20159;51.072;13.526;2023-02-11T08:43:35;36.67;;;28.17;;
33864;SDS011;20159;51.072;13.526;2023-02-11T08:46:05;36.67;;;28.55;;
33864;SDS011;20159;51.072;13.526;2023-02-11T08:48:31;38.13;;;28.95;;
33864;SDS011;20159;51.072;13.526;2023-02-11T08:50:57;38.38;;;28.20;;
33864;SDS011;20159;51.072;13.526;2023-02-11T08:53:23;39.25;;;29.58;;
33864;SDS011;20159;51.072;13.526;2023-02-11T08:55:52;36.15;;;28.45;;
33864;SDS011;20159;51.072;13.526;2023-02-11T08:58:19;36.80;;;27.85;;
33864;SDS011;20159;51.072;13.526;2023-02-11T09:00:45;38.33;;;29.02;;
33864;SDS011;20159;51.072;13.526;2023-02-11T09:03:12;36.55;;;27.73;;
33864;SDS011;20159;51.072;13.526;2023-02-11T09:05:45;36.05;;;29.27;;
33864;SDS011;20159;51.072;13.526;2023-02-11T09:08:14;41.33;;;30.02;;
33864;SDS011;20159;51.072;13.526;2023-02-11T09:10:40;35.55;;;28.92;;
33864;SDS011;20159;51.072;13.526;2023-02-11T09:13:06;35.75;;;28.83;;
33864;SDS011;20159;51.072;13.526;2023-02-11T09:15:33;39.50;;;30.73;;
33864;SDS011;20159;51.072;13.526;2023-02-11T09:17:58;39.17;;;29.15;;
33864;SDS011;20159;51.072;13.526;2023-02-11T09:20:24;36.33;;;29.13;;
33864;SDS011;20159;51.072;13.526;2023-02-11T09:22:51;37.45;;;28.50;;
33864;SDS011;20159;51.072;13.526;2023-02-11T09:25:17;38.15;;;28.77;;
33864;SDS011;20159;51.072;13.526;2023-02-11T09:27:43;39.03;;;30.10;;
33864;SDS011;20159;51.072;13.526;2023-02-11T09:30:08;38.97;;;30.55;;
33864;SDS011;20159;51.072;13.526;2023-02-11T09:32:34;37.58;;;29.13;;
33864;SDS011;20159;51.072;13.526;2023-02-11T09:35:00;35.92;;;28.85;;
33864;SDS011;20159;51.072;13.526;2023-02-11T09:37:25;38.03;;;29.40;;
33864;SDS011;20159;51.072;13.526;2023-02-11T09:39:51;38.33;;;30.40;;
33864;SDS011;20159;51.072;13.526;2023-02-11T09:42:35;39.97;;;30.17;;
33864;SDS011;20159;51.072;13.526;2023-02-11T09:45:18;39.33;;;29.42;;
33864;SDS011;20159;51.072;13.526;2023-02-11T09:47:47;38.85;;;30.40;;
33864;SDS011;20159;51.072;13.526;2023-02-11T09:50:32;40.85;;;30.75;;
33864;SDS011;20159;51.072;13.526;2023-02-11T09:55:48;39.95;;;29.55;;
33864;SDS011;20159;51.072;13.526;2023-02-11T09:58:22;36.75;;;29.67;;
33864;SDS011;20159;51.072;13.526;2023-02-11T10:01:01;38.20;;;28.98;;
33864;SDS011;20159;51.072;13.526;2023-02-11T10:03:55;36.75;;;29.08;;
33864;SDS011;20159;51.072;13.526;2023-02-11T10:06:44;39.95;;;29.92;;
33864;SDS011;20159;51.072;13.526;2023-02-11T10:12:53;37.90;;;28.50;;
33864;SDS011;20159;51.072;13.526;2023-02-11T10:15:44;36.80;;;29.27;;
33864;SDS011;20159;51.072;13.526;2023-02-11T10:18:32;35.75;;;28.38;;
33864;SDS011;20159;51.072;13.526;2023-02-11T10:21:38;34.83;;;28.95;;
33864;SDS011;20159;51.072;13.526;2023-02-11T10:24:19;35.90;;;27.45;;
33864;SDS011;20159;51.072;13.526;2023-02-11T10:26:45;34.45;;;27.30;;
33864;SDS011;20159;51.072;13.526;2023-02-11T10:29:14;35.05;;;29.45;;
33864;SDS011;20159;51.072;13.526;2023-02-11T10:31:43;35.58;;;28.30;;
33864;SDS011;20159;51.072;13.526;2023-02-11T10:34:11;35.35;;;27.63;;
33864;SDS011;20159;51.072;13.526;2023-02-11T10:36:39;35.00;;;27.63;;
33864;SDS011;20159;51.072;13.526;2023-02-11T10:39:14;33.63;;;26.90;;
33864;SDS011;20159;51.072;13.526;2023-02-11T10:41:44;33.47;;;27.10;;
33864;SDS011;20159;51.072;13.526;2023-02-11T10:44:21;34.03;;;26.63;;
33864;SDS011;20159;51.072;13.526;2023-02-11T10:46:50;35.50;;;27.27;;
33864;SDS011;20159;51.072;13.526;2023-02-11T10:49:39;33.72;;;27.33;;
33864;SDS011;20159;51.072;13.526;2023-02-11T10:54:53;34.47;;;27.15;;
33864;SDS011;20159;51.072;13.526;2023-02-11T10:57:21;34.45;;;27.77;;
33864;SDS011;20159;51.072;13.526;2023-02-11T10:59:50;32.35;;;26.48;;
33864;SDS011;20159;51.072;13.526;2023-02-11T11:02:25;33.30;;;27.15;;
33864;SDS011;20159;51.072;13.526;2023-02-11T11:05:00;36.22;;;27.95;;
33864;SDS011;20159;51.072;13.526;2023-02-11T11:07:28;34.35;;;27.13;;
33864;SDS011;20159;51.072;13.526;2023-02-11T11:09:58;33.75;;;27.13;;
33864;SDS011;20159;51.072;13.526;2023-02-11T11:12:34;32.90;;;26.98;;
33864;SDS011;20159;51.072;13.526;2023-02-11T11:15:22;35.05;;;26.52;;
33864;SDS011;20159;51.072;13.526;2023-02-11T11:18:13;34.58;;;27.15;;
33864;SDS011;20159;51.072;13.526;2023-02-11T11:20:43;31.25;;;26.70;;
33864;SDS011;20159;51.072;13.526;2023-02-11T11:23:25;32.13;;;26.48;;
33864;SDS011;20159;51.072;13.526;2023-02-11T11:26:15;34.25;;;26.65;;
33864;SDS011;20159;51.072;13.526;2023-02-11T11:31:36;33.17;;;25.02;;
33864;SDS011;20159;51.072;13.526;2023-02-11T11:34:22;33.33;;;27.17;;
33864;SDS011;20159;51.072;13.526;2023-02-11T11:36:53;33.55;;;26.17;;
33864;SDS011;20159;51.072;13.526;2023-02-11T11:39:30;33.05;;;26.15;;
33864;SDS011;20159;51.072;13.526;2023-02-11T11:41:58;32.88;;;24.88;;
33864;SDS011;20159;51.072;13.526;2023-02-11T11:44:33;32.42;;;25.67;;
33864;SDS011;20159;51.072;13.526;2023-02-11T11:47:10;32.22;;;27.15;;
33864;SDS011;20159;51.072;13.526;2023-02-11T11:49:47;35.25;;;27.67;;
33864;SDS011;20159;51.072;13.526;2023-02-11T11:52:53;31.90;;;25.70;;
33864;SDS011;20159;51.072;13.526;2023-02-11T11:55:32;31.10;;;25.25;;
33864;SDS011;20159;51.072;13.526;2023-02-11T11:58:03;31.77;;;26.65;;
33864;SDS011;20159;51.072;13.526;2023-02-11T12:00:39;35.45;;;28.42;;
33864;SDS011;20159;51.072;13.526;2023-02-11T12:06:23;32.75;;;25.73;;
33864;SDS011;20159;51.072;13.526;2023-02-11T12:09:07;35.35;;;25.83;;
33864;SDS011;20159;51.072;13.526;2023-02-11T12:11:51;33.22;;;25.55;;
33864;SDS011;20159;51.072;13.526;2023-02-11T12:14:42;34.45;;;25.92;;
33864;SDS011;20159;51.072;13.526;2023-02-11T12:17:24;31.55;;;25.67;;
33864;SDS011;20159;51.072;13.526;2023-02-11T12:20:27;34.75;;;26.83;;
33864;SDS011;20159;51.072;13.526;2023-02-11T12:23:08;32.50;;;24.88;;
33864;SDS011;20159;51.072;13.526;2023-02-11T12:25:51;31.50;;;25.48;;
33864;SDS011;20159;51.072;13.526;2023-02-11T12:28:22;33.30;;;25.83;;
33864;SDS011;20159;51.072;13.526;2023-02-11T12:33:48;32.58;;;24.70;;
33864;SDS011;20159;51.072;13.526;2023-02-11T12:39:16;30.98;;;25.90;;
33864;SDS011;20159;51.072;13.526;2023-02-11T12:45:17;34.58;;;26.55;;
33864;SDS011;20159;51.072;13.526;2023-02-11T12:56:35;30.53;;;24.93;;
33864;SDS011;20159;51.072;13.526;2023-02-11T12:59:04;33.88;;;25.67;;
33864;SDS011;20159;51.072;13.526;2023-02-11T13:01:51;30.13;;;24.60;;
33864;SDS011;20159;51.072;13.526;2023-02-11T13:04:24;32.30;;;25.42;;
33864;SDS011;20159;51.072;13.526;2023-02-11T13:07:01;28.92;;;22.85;;
33864;SDS011;20159;51.072;13.526;2023-02-11T13:09:44;30.52;;;24.35;;
33864;SDS011;20159;51.072;13.526;2023-02-11T13:12:18;31.25;;;24.85;;
33864;SDS011;20159;51.072;13.526;2023-02-11T13:15:06;32.60;;;25.35;;
33864;SDS011;20159;51.072;13.526;2023-02-11T13:17:39;30.92;;;24.25;;
33864;SDS011;20159;51.072;13.526;2023-02-11T13:20:27;29.23;;;23.40;;
33864;SDS011;20159;51.072;13.526;2023-02-11T13:22:59;34.13;;;25.95;;
33864;SDS011;20159;51.072;13.526;2023-02-11T13:25:42;31.75;;;25.65;;
33864;SDS011;20159;51.072;13.526;2023-02-11T13:31:06;28.38;;;24.02;;
33864;SDS011;20159;51.072;13.526;2023-02-11T13:38:25;30.40;;;25.45;;
33864;SDS011;20159;51.072;13.526;2023-02-11T13:43:41;29.27;;;24.35;;
33864;SDS011;20159;51.072;13.526;2023-02-11T13:46:11;31.08;;;24.85;;
33864;SDS011;20159;51.072;13.526;2023-02-11T13:48:44;29.67;;;23.75;;
33864;SDS011;20159;51.072;13.526;2023-02-11T13:51:13;28.55;;;23.48;;
33864;SDS011;20159;51.072;13.526;2023-02-11T13:53:45;30.77;;;24.20;;
33864;SDS011;20159;51.072;13.526;2023-02-11T13:56:28;27.23;;;23.00;;
33864;SDS011;20159;51.072;13.526;2023-02-11T13:58:56;30.58;;;24.30;;
33864;SDS011;20159;51.072;13.526;2023-02-11T14:04:37;30.58;;;24.02;;
33864;SDS011;20159;51.072;13.526;2023-02-11T14:08:10;28.77;;;23.30;;
33864;SDS011;20159;51.072;13.526;2023-02-11T14:11:01;30.15;;;24.20;;
33864;SDS011;20159;51.072;13.526;2023-02-11T14:16:20;31.40;;;26.15;;
33864;SDS011;20159;51.072;13.526;2023-02-11T14:32:12;28.02;;;24.17;;
33864;SDS011;20159;51.072;13.526;2023-02-11T14:40:30;29.90;;;24.88;;
33864;SDS011;20159;51.072;13.526;2023-02-11T14:43:12;30.80;;;24.55;;
33864;SDS011;20159;51.072;13.526;2023-02-11T14:45:47;30.83;;;24.45;;
33864;SDS011;20159;51.072;13.526;2023-02-11T14:48:16;28.48;;;23.23;;
33864;SDS011;20159;51.072;13.526;2023-02-11T14:50:50;31.00;;;24.40;;
33864;SDS011;20159;51.072;13.526;2023-02-11T14:53:19;29.98;;;23.75;;
33864;SDS011;20159;51.072;13.526;2023-02-11T14:55:48;30.77;;;24.88;;
33864;SDS011;20159;51.072;13.526;2023-02-11T14:58:20;30.45;;;23.42;;
33864;SDS011;20159;51.072;13.526;2023-02-11T15:00:49;29.92;;;24.13;;
33864;SDS011;20159;51.072;13.526;2023-02-11T15:03:24;30.83;;;23.67;;
33864;SDS011;20159;51.072;13.526;2023-02-11T15:05:58;29.10;;;23.25;;
33864;SDS011;20159;51.072;13.526;2023-02-11T15:08:27;29.27;;;23.27;;
33864;SDS011;20159;51.072;13.526;2023-02-11T15:10:53;30.48;;;23.92;;
33864;SDS011;20159;51.072;13.526;2023-02-11T15:13:20;32.28;;;24.90;;
33864;SDS011;20159;51.072;13.526;2023-02-11T15:15:54;30.50;;;25.42;;
33864;SDS011;20159;51.072;13.526;2023-02-11T15:18:25;30.83;;;25.90;;
33864;SDS011;20159;51.072;13.526;2023-02-11T15:20:57;28.40;;;23.23;;
33864;SDS011;20159;51.072;13.526;2023-02-11T15:23:24;29.10;;;22.98;;
33864;SDS011;20159;51.072;13.526;2023-02-11T15:25:52;29.08;;;23.27;;
33864;SDS011;20159;51.072;13.526;2023-02-11T15:28:27;27.95;;;22.65;;
33864;SDS011;20159;51.072;13.526;2023-02-11T15:30:58;27.77;;;23.02;;
33864;SDS011;20159;51.072;13.526;2023-02-11T15:33:25;26.60;;;21.48;;
33864;SDS011;20159;51.072;13.526;2023-02-11T15:35:54;25.05;;;20.02;;
33864;SDS011;20159;51.072;13.526;2023-02-11T15:38:20;25.63;;;21.10;;
33864;SDS011;20159;51.072;13.526;2023-02-11T15:40:59;27.17;;;22.10;;
33864;SDS011;20159;51.072;13.526;2023-02-11T15:43:42;25.60;;;20.73;;
33864;SDS011;20159;51.072;13.526;2023-02-11T15:46:10;28.75;;;21.05;;
33864;SDS011;20159;51.072;13.526;2023-02-11T15:48:43;28.13;;;22.75;;
33864;SDS011;20159;51.072;13.526;2023-02-11T15:51:24;26.92;;;21.75;;
33864;SDS011;20159;51.072;13.526;2023-02-11T15:53:54;30.30;;;22.98;;
33864;SDS011;20159;51.072;13.526;2023-02-11T15:56:41;24.48;;;19.52;;
33864;SDS011;20159;51.072;13.526;2023-02-11T15:59:09;28.13;;;21.33;;
33864;SDS011;20159;51.072;13.526;2023-02-11T16:01:49;30.10;;;21.13;;
33864;SDS011;20159;51.072;13.526;2023-02-11T16:04:20;27.65;;;21.98;;
33864;SDS011;20159;51.072;13.526;2023-02-11T16:06:47;27.70;;;21.55;;
33864;SDS011;20159;51.072;13.526;2023-02-11T16:14:44;28.25;;;23.38;;
33864;SDS011;20159;51.072;13.526;2023-02-11T16:22:26;28.63;;;22.65;;